Time;durP1;ratioP1;P1;durP2;ratioP2;P2;SDS_P1;SDS_P2;PMS_P1;PMS_P2;Temp;Humidity;BMP_temperature;BMP_pressure;BME280_temperature;BME280_humidity;BME280_pressure;Samples;Min_cycle;Max_cycle;Signal;HPM_P1;HPM_P2
2022/07/02 00:00:46;;;;;;;0.80;0.50;;;;;;;27.10;38.68;99552.00;5103866;28;20135;-68
2022/07/02 00:03:15;;;;;;;0.63;0.30;;;;;;;27.07;38.46;99550.78;5104100;28;20036;-68
2022/07/02 00:05:49;;;;;;;0.70;0.38;;;;;;;27.09;38.55;99556.81;5109173;28;20051;-69
2022/07/02 00:08:18;;;;;;;0.65;0.40;;;;;;;27.09;38.59;99558.81;5100453;28;20522;-68
2022/07/02 00:10:46;;;;;;;0.32;0.25;;;;;;;27.10;38.52;99557.59;5106079;28;20051;-69
2022/07/02 00:13:11;;;;;;;0.40;0.30;;;;;;;27.11;38.47;99553.59;5102893;28;20072;-68
2022/07/02 00:15:37;;;;;;;0.85;0.20;;;;;;;27.07;38.45;99558.41;5098358;28;20060;-68
2022/07/02 00:18:03;;;;;;;2.67;0.50;;;;;;;27.04;38.66;99550.81;5106363;28;20067;-68
2022/07/02 00:20:29;;;;;;;0.32;0.32;;;;;;;27.02;38.47;99547.63;5109482;28;20040;-68
2022/07/02 00:22:55;;;;;;;0.40;0.30;;;;;;;27.02;38.67;99553.25;5101444;28;20044;-69
2022/07/02 00:25:21;;;;;;;0.50;0.40;;;;;;;27.01;38.45;99560.06;5109108;28;20052;-68
2022/07/02 00:27:47;;;;;;;0.30;0.30;;;;;;;27.02;38.72;99558.84;5106897;28;20499;-69
2022/07/02 00:30:14;;;;;;;0.20;0.20;;;;;;;27.03;38.57;99560.44;5108966;28;20043;-68
2022/07/02 00:32:41;;;;;;;0.55;0.38;;;;;;;27.01;38.71;99562.88;5109127;28;20608;-69
2022/07/02 00:35:09;;;;;;;0.38;0.30;;;;;;;26.99;38.83;99571.69;5109168;28;20039;-68
2022/07/02 00:37:37;;;;;;;0.50;0.30;;;;;;;27.01;38.69;99565.69;5099858;28;20044;-68
2022/07/02 00:40:04;;;;;;;0.57;0.30;;;;;;;27.00;38.64;99573.28;5089824;28;20109;-68
2022/07/02 00:42:31;;;;;;;0.30;0.20;;;;;;;27.02;38.70;99570.09;5108792;28;20071;-68
2022/07/02 00:44:58;;;;;;;0.90;0.40;;;;;;;27.02;38.66;99568.06;5104003;28;20077;-69
2022/07/02 00:47:25;;;;;;;0.40;0.40;;;;;;;27.03;38.73;99566.06;5103398;28;20066;-69
2022/07/02 00:49:51;;;;;;;0.32;0.28;;;;;;;27.04;38.75;99570.47;5106406;28;20082;-68
2022/07/02 00:52:16;;;;;;;0.65;0.35;;;;;;;27.02;38.50;99570.09;5109088;28;20464;-68
2022/07/02 00:54:42;;;;;;;0.43;0.32;;;;;;;26.99;38.70;99568.09;5099667;28;20460;-68
2022/07/02 00:57:07;;;;;;;0.25;0.25;;;;;;;26.98;38.75;99567.28;5108369;28;20049;-68
2022/07/02 00:59:35;;;;;;;0.57;0.40;;;;;;;26.99;38.60;99573.69;5112347;28;20043;-68
2022/07/02 01:02:01;;;;;;;0.52;0.40;;;;;;;26.97;38.61;99562.09;5100410;28;20044;-68
2022/07/02 01:04:30;;;;;;;0.25;0.20;;;;;;;26.95;38.99;99570.13;5089898;28;20044;-68
2022/07/02 01:07:05;;;;;;;0.20;0.20;;;;;;;26.95;39.11;99576.53;5104092;28;20040;-68
2022/07/02 01:12:26;;;;;;;0.20;0.20;;;;;;;26.95;38.84;99575.75;5093433;28;20419;-69
2022/07/02 01:14:53;;;;;;;0.30;0.30;;;;;;;26.96;39.13;99572.53;5102015;28;20126;-68
2022/07/02 01:17:19;;;;;;;0.15;0.15;;;;;;;26.96;39.10;99568.94;5108833;28;20050;-68
2022/07/02 01:19:48;;;;;;;0.30;0.20;;;;;;;26.95;38.90;99565.31;5093260;28;20048;-68
2022/07/02 01:22:19;;;;;;;0.70;0.38;;;;;;;26.95;38.91;99564.53;5103142;28;20035;-68
2022/07/02 01:24:49;;;;;;;0.43;0.28;;;;;;;26.98;38.94;99569.31;5102573;28;20043;-68
2022/07/02 01:27:15;;;;;;;0.20;0.20;;;;;;;26.99;38.99;99576.50;5104279;28;20068;-68
2022/07/02 01:29:41;;;;;;;0.50;0.30;;;;;;;26.98;39.09;99569.31;5103536;28;20464;-68
2022/07/02 01:32:07;;;;;;;0.20;0.17;;;;;;;26.97;38.95;99576.94;5094495;28;20496;-68
2022/07/02 01:34:39;;;;;;;0.30;0.30;;;;;;;26.95;39.10;99573.75;5105629;28;20461;-68
2022/07/02 01:37:07;;;;;;;0.30;0.25;;;;;;;26.95;39.00;99581.38;5098685;28;20136;-68
2022/07/02 01:39:33;;;;;;;0.25;0.20;;;;;;;26.95;39.11;99586.97;5112020;28;20126;-68
2022/07/02 01:41:58;;;;;;;0.28;0.28;;;;;;;26.97;39.33;99579.72;5108653;28;20036;-68
2022/07/02 01:44:23;;;;;;;0.20;0.20;;;;;;;26.97;39.21;99576.94;5109300;28;20044;-68
2022/07/02 01:46:49;;;;;;;0.20;0.20;;;;;;;26.95;39.14;99587.78;5111799;28;20035;-68
2022/07/02 01:49:14;;;;;;;0.45;0.28;;;;;;;26.94;39.23;99583.38;5103630;28;20058;-68
2022/07/02 01:51:40;;;;;;;0.10;0.10;;;;;;;26.95;39.11;99584.19;5108574;28;20396;-68
2022/07/02 01:54:07;;;;;;;0.25;0.20;;;;;;;26.92;39.08;99585.78;5093558;28;20156;-69
2022/07/02 01:56:35;;;;;;;0.50;0.30;;;;;;;26.89;39.29;99581.78;5105239;28;20044;-68
2022/07/02 01:59:01;;;;;;;0.40;0.30;;;;;;;26.90;39.38;99585.41;5111821;28;20086;-68
2022/07/02 02:01:26;;;;;;;0.30;0.20;;;;;;;26.92;39.14;99582.19;5111607;28;20063;-68
2022/07/02 02:03:52;;;;;;;0.30;0.22;;;;;;;26.91;39.42;99583.38;5109520;28;20048;-70
2022/07/02 02:06:17;;;;;;;0.30;0.20;;;;;;;26.91;39.13;99584.19;5101374;28;20456;-70
2022/07/02 02:08:43;;;;;;;0.25;0.20;;;;;;;26.91;39.20;99586.19;5099185;28;20047;-70
2022/07/02 02:11:09;;;;;;;0.38;0.30;;;;;;;26.87;39.46;99587.03;5092077;28;20109;-70
2022/07/02 02:13:34;;;;;;;0.40;0.28;;;;;;;26.84;39.35;99579.41;5094287;28;20052;-70
2022/07/02 02:15:59;;;;;;;0.20;0.20;;;;;;;26.86;39.50;99579.00;5093122;28;20039;-70
2022/07/02 02:18:25;;;;;;;0.52;0.30;;;;;;;26.86;39.42;99588.25;5095638;28;20066;-70
2022/07/02 02:20:50;;;;;;;0.60;0.20;;;;;;;26.87;39.21;99586.25;5102764;28;20035;-70
2022/07/02 02:23:16;;;;;;;0.40;0.30;;;;;;;26.83;39.32;99582.66;5102623;28;20044;-70
2022/07/02 02:25:41;;;;;;;0.30;0.20;;;;;;;26.85;39.26;99581.00;5104288;28;20078;-70
2022/07/02 02:28:09;;;;;;;0.20;0.20;;;;;;;26.87;39.37;99584.22;5104927;28;20126;-70
2022/07/02 02:30:34;;;;;;;0.20;0.20;;;;;;;26.85;39.13;99592.25;5104283;28;20392;-70
2022/07/02 02:33:00;;;;;;;0.30;0.25;;;;;;;26.84;39.31;99590.66;5102126;28;20506;-70
2022/07/02 02:35:25;;;;;;;0.30;0.30;;;;;;;26.85;39.32;99583.81;5103061;28;20051;-70
2022/07/02 02:37:51;;;;;;;0.32;0.30;;;;;;;26.85;39.21;99583.81;5108145;28;20055;-71
2022/07/02 02:40:16;;;;;;;0.20;0.20;;;;;;;26.84;39.47;99587.84;5108981;28;20558;-71
2022/07/02 02:42:41;;;;;;;0.38;0.30;;;;;;;26.83;39.32;99586.25;5111495;28;20047;-70
2022/07/02 02:45:08;;;;;;;0.32;0.28;;;;;;;26.82;39.11;99589.47;5110897;28;20043;-69
2022/07/02 02:47:33;;;;;;;0.40;0.40;;;;;;;26.83;39.31;99589.06;5100797;28;20415;-68
2022/07/02 02:49:58;;;;;;;0.20;0.20;;;;;;;26.82;39.46;99587.47;5094184;28;20043;-68
2022/07/02 02:52:24;;;;;;;0.45;0.30;;;;;;;26.80;39.38;99591.91;5100164;28;20116;-68
2022/07/02 02:54:49;;;;;;;0.20;0.20;;;;;;;26.83;39.25;99593.88;5110927;28;20461;-69
2022/07/02 02:57:14;;;;;;;0.30;0.30;;;;;;;26.83;39.32;99591.88;5102054;28;20115;-70
2022/07/02 02:59:40;;;;;;;0.38;0.20;;;;;;;26.80;39.39;99589.91;5102608;28;20040;-70
2022/07/02 03:02:05;;;;;;;0.40;0.30;;;;;;;26.77;39.26;99585.09;5091516;28;20089;-70
2022/07/02 03:04:31;;;;;;;0.38;0.35;;;;;;;26.80;39.29;99587.09;5102272;28;20055;-70
2022/07/02 03:06:56;;;;;;;0.40;0.30;;;;;;;26.80;39.18;99597.50;5110410;28;20442;-70
2022/07/02 03:09:22;;;;;;;0.45;0.30;;;;;;;26.76;39.13;99597.53;5097668;28;20040;-70
2022/07/02 03:11:47;;;;;;;0.22;0.20;;;;;;;26.81;39.36;99597.09;5102182;28;20040;-70
2022/07/02 03:14:13;;;;;;;0.40;0.35;;;;;;;26.80;39.52;99603.13;5110364;28;20047;-70
2022/07/02 03:16:38;;;;;;;0.30;0.30;;;;;;;26.78;39.22;99597.09;5104443;28;20458;-70
2022/07/02 03:19:03;;;;;;;0.30;0.22;;;;;;;26.75;39.23;99592.34;5106243;28;20040;-70
2022/07/02 03:21:29;;;;;;;0.25;0.25;;;;;;;26.77;39.29;99593.50;5109191;28;20067;-70
2022/07/02 03:23:54;;;;;;;0.95;0.43;;;;;;;26.75;39.62;99595.94;5110914;28;20123;-70
2022/07/02 03:26:20;;;;;;;0.38;0.28;;;;;;;26.78;39.28;99594.31;5109965;28;20480;-68
2022/07/02 03:28:45;;;;;;;0.32;0.30;;;;;;;26.78;39.47;99594.31;5110313;28;20454;-68
2022/07/02 03:31:10;;;;;;;0.32;0.30;;;;;;;26.76;39.25;99603.13;5110298;28;20393;-69
2022/07/02 03:33:36;;;;;;;0.40;0.30;;;;;;;26.75;39.39;99595.94;5108587;28;20043;-69
2022/07/02 03:36:01;;;;;;;0.77;0.40;;;;;;;26.76;39.25;99591.13;5090011;28;20040;-68
2022/07/02 03:38:27;;;;;;;0.40;0.30;;;;;;;26.75;39.20;99593.13;5091787;28;20075;-68
2022/07/02 03:40:53;;;;;;;0.45;0.20;;;;;;;26.74;39.17;99583.13;5107463;28;20064;-68
2022/07/02 03:43:18;;;;;;;0.43;0.30;;;;;;;26.74;39.35;99591.53;5090529;28;20039;-68
2022/07/02 03:45:44;;;;;;;0.35;0.30;;;;;;;26.72;39.04;99593.97;5091644;28;20118;-68
2022/07/02 03:48:09;;;;;;;0.40;0.35;;;;;;;26.75;39.22;99595.13;5096253;28;20063;-68
2022/07/02 03:50:38;;;;;;;0.30;0.30;;;;;;;26.73;39.27;99598.34;5092728;28;20055;-68
2022/07/02 03:53:04;;;;;;;0.30;0.30;;;;;;;26.70;39.18;99603.97;5109945;28;20066;-69
2022/07/02 03:55:30;;;;;;;0.38;0.28;;;;;;;26.71;39.18;99603.56;5109762;28;20415;-68
2022/07/02 03:57:55;;;;;;;0.80;0.50;;;;;;;26.72;39.29;99605.19;5104720;28;20491;-68
2022/07/02 04:00:21;;;;;;;0.43;0.40;;;;;;;26.72;39.02;99602.38;5109948;28;20051;-70
2022/07/02 04:02:46;;;;;;;0.40;0.38;;;;;;;26.71;39.21;99597.94;5109894;28;20035;-70
2022/07/02 04:05:11;;;;;;;0.60;0.35;;;;;;;26.72;39.40;99596.78;5105397;28;20036;-70
2022/07/02 04:07:37;;;;;;;0.30;0.20;;;;;;;26.70;39.53;99593.56;5105548;28;20538;-70
2022/07/02 04:10:03;;;;;;;0.30;0.30;;;;;;;26.70;39.30;99601.19;5109004;28;20058;-70
2022/07/02 04:12:29;;;;;;;0.40;0.30;;;;;;;26.72;39.51;99590.31;5103213;28;20427;-70
2022/07/02 04:14:54;;;;;;;0.63;0.40;;;;;;;26.73;39.48;99597.56;5100360;28;20521;-70
2022/07/02 04:17:19;;;;;;;0.40;0.30;;;;;;;26.69;39.57;99600.38;5098375;28;20043;-70
2022/07/02 04:19:45;;;;;;;0.25;0.25;;;;;;;26.68;39.49;99595.97;5093714;28;20622;-70
2022/07/02 04:22:10;;;;;;;0.47;0.30;;;;;;;26.67;39.57;99600.00;5097436;28;20054;-70
2022/07/02 04:24:36;;;;;;;0.35;0.30;;;;;;;26.68;39.28;99601.59;5099293;28;20040;-70
2022/07/02 04:27:01;;;;;;;0.38;0.30;;;;;;;26.68;39.38;99589.56;5096635;28;20075;-70
2022/07/02 04:29:26;;;;;;;0.35;0.30;;;;;;;26.68;39.34;99581.16;5104623;28;20066;-70
2022/07/02 04:31:52;;;;;;;0.25;0.25;;;;;;;26.66;39.63;99578.75;5104938;28;20036;-70
2022/07/02 04:34:17;;;;;;;0.30;0.20;;;;;;;26.67;39.83;99583.16;5109121;28;20389;-70
2022/07/02 04:36:42;;;;;;;0.20;0.20;;;;;;;26.69;39.42;99582.75;5108938;28;20062;-70
2022/07/02 04:39:08;;;;;;;0.50;0.30;;;;;;;26.67;39.38;99583.16;5109628;28;20043;-70
2022/07/02 04:41:33;;;;;;;0.47;0.38;;;;;;;26.69;39.65;99579.94;5100337;28;20113;-70
2022/07/02 04:43:59;;;;;;;0.20;0.20;;;;;;;26.66;39.73;99575.97;5108725;28;20031;-70
2022/07/02 04:46:25;;;;;;;0.47;0.40;;;;;;;26.67;39.71;99585.16;5107562;28;20043;-70
2022/07/02 04:48:51;;;;;;;0.32;0.25;;;;;;;26.70;39.73;99589.94;5108505;28;20039;-70
2022/07/02 04:51:17;;;;;;;0.28;0.28;;;;;;;26.71;39.75;99592.34;5106204;28;20047;-70
2022/07/02 04:53:43;;;;;;;0.43;0.30;;;;;;;26.74;39.50;99587.94;5103125;28;20534;-70
2022/07/02 04:56:09;;;;;;;0.30;0.30;;;;;;;26.74;39.49;99587.94;5105171;28;20040;-70
2022/07/02 04:58:34;;;;;;;0.30;0.20;;;;;;;26.75;39.67;99598.75;5106071;28;20039;-70
2022/07/02 05:01:00;;;;;;;0.32;0.30;;;;;;;26.75;39.67;99609.16;5109004;28;20028;-70
2022/07/02 05:03:25;;;;;;;0.57;0.40;;;;;;;26.74;39.54;99601.97;5103013;28;20052;-70
2022/07/02 05:05:51;;;;;;;0.20;0.20;;;;;;;26.73;39.77;99601.16;5108126;28;20040;-70
2022/07/02 05:08:18;;;;;;;0.35;0.30;;;;;;;26.75;39.74;99606.38;5101264;28;20044;-70
2022/07/02 05:10:43;;;;;;;0.20;0.20;;;;;;;26.73;39.92;99600.38;5091822;28;20051;-70
2022/07/02 05:13:09;;;;;;;0.25;0.25;;;;;;;26.77;40.05;99601.13;5102594;28;20047;-70
2022/07/02 05:15:34;;;;;;;0.32;0.30;;;;;;;26.76;40.11;99591.91;5093311;28;20040;-70
2022/07/02 05:18:00;;;;;;;0.43;0.30;;;;;;;26.80;39.75;99592.69;5107178;28;20031;-70
2022/07/02 05:20:27;;;;;;;0.52;0.30;;;;;;;26.82;39.82;99584.66;5103764;28;20052;-69
2022/07/02 05:22:53;;;;;;;0.20;0.20;;;;;;;26.83;39.59;99586.25;5097557;28;20048;-69
2022/07/02 05:25:18;;;;;;;0.30;0.30;;;;;;;26.84;39.74;99585.03;5092245;28;20044;-68
2022/07/02 05:27:44;;;;;;;0.20;0.20;;;;;;;26.86;39.84;99582.63;5092979;28;20051;-68
2022/07/02 05:30:10;;;;;;;0.47;0.30;;;;;;;26.84;40.02;99578.63;5106540;28;20562;-68
2022/07/02 05:32:35;;;;;;;0.30;0.30;;;;;;;26.86;39.79;99576.19;5100512;28;20036;-68
2022/07/02 05:35:01;;;;;;;0.20;0.20;;;;;;;26.87;39.62;99569.41;5100428;28;20039;-69
2022/07/02 05:37:26;;;;;;;0.20;0.20;;;;;;;26.85;40.00;99578.22;5092529;28;20084;-68
2022/07/02 05:39:51;;;;;;;0.32;0.30;;;;;;;26.86;39.84;99577.03;5095621;28;20070;-70
2022/07/02 05:42:17;;;;;;;0.45;0.30;;;;;;;26.86;39.64;99577.03;5095698;28;20051;-70
2022/07/02 05:44:42;;;;;;;0.20;0.20;;;;;;;26.91;39.50;99583.38;5107749;28;20047;-70
2022/07/02 05:47:11;;;;;;;0.30;0.30;;;;;;;26.90;39.70;99579.78;5094401;28;20415;-70
2022/07/02 05:49:36;;;;;;;0.30;0.30;;;;;;;26.93;39.87;99589.38;5092130;28;20036;-70
2022/07/02 05:52:02;;;;;;;0.52;0.30;;;;;;;26.92;39.64;99593.41;5102942;28;20067;-70
2022/07/02 05:54:27;;;;;;;0.50;0.40;;;;;;;26.91;39.96;99587.00;5100294;28;20043;-70
2022/07/02 05:56:53;;;;;;;0.50;0.35;;;;;;;26.91;39.53;99589.81;5108658;28;20903;-70
2022/07/02 05:59:18;;;;;;;0.30;0.30;;;;;;;26.92;39.61;99593.41;5093492;28;20032;-70
2022/07/02 06:01:43;;;;;;;0.20;0.20;;;;;;;26.98;39.71;99591.75;5108108;28;20050;-70
2022/07/02 06:04:09;;;;;;;0.35;0.30;;;;;;;27.04;39.59;99584.50;5101576;28;20044;-70
2022/07/02 06:09:18;;;;;;;0.20;0.20;;;;;;;27.02;39.78;99584.13;5094283;28;20047;-70
2022/07/02 06:11:44;;;;;;;0.40;0.30;;;;;;;26.97;39.81;99576.13;5092330;28;20055;-69
2022/07/02 06:14:09;;;;;;;1.00;0.20;;;;;;;26.97;39.88;99587.34;5092375;28;20075;-68
2022/07/02 06:16:34;;;;;;;0.40;0.28;;;;;;;26.89;40.05;99576.19;5097247;28;20399;-69
2022/07/02 06:19:00;;;;;;;0.50;0.30;;;;;;;26.88;39.86;99579.41;5110834;28;20096;-68
2022/07/02 06:21:25;;;;;;;0.20;0.20;;;;;;;26.87;39.95;99583.44;5092442;28;20040;-70
2022/07/02 06:23:51;;;;;;;0.32;0.30;;;;;;;26.88;40.10;99583.00;5092606;28;20208;-69
2022/07/02 06:26:16;;;;;;;0.32;0.32;;;;;;;26.91;40.31;99577.78;5108976;28;20127;-68
2022/07/02 06:28:42;;;;;;;0.43;0.30;;;;;;;26.94;40.13;99580.56;5096462;28;20119;-68
2022/07/02 06:31:07;;;;;;;0.20;0.20;;;;;;;26.92;40.08;99588.59;5100167;28;20067;-68
2022/07/02 06:33:32;;;;;;;0.20;0.20;;;;;;;26.92;40.48;99584.97;5094573;28;20042;-68
2022/07/02 06:35:58;;;;;;;0.38;0.30;;;;;;;26.92;40.28;99588.59;5106223;28;20050;-68
2022/07/02 06:38:23;;;;;;;0.30;0.30;;;;;;;26.94;40.28;99579.78;5103479;28;20044;-68
2022/07/02 06:40:48;;;;;;;0.30;0.25;;;;;;;26.98;40.44;99577.72;5091235;28;20203;-68
2022/07/02 06:43:14;;;;;;;0.20;0.20;;;;;;;26.96;40.31;99580.16;5096934;28;20416;-69
2022/07/02 06:45:40;;;;;;;0.28;0.28;;;;;;;26.95;40.56;99575.75;5099209;28;20043;-68
2022/07/02 06:48:05;;;;;;;0.40;0.30;;;;;;;26.94;40.51;99585.38;5098752;28;20044;-68
2022/07/02 06:50:30;;;;;;;0.38;0.38;;;;;;;26.96;40.31;99589.38;5093575;28;20055;-68
2022/07/02 06:52:56;;;;;;;0.45;0.30;;;;;;;26.97;40.50;99579.72;5109697;28;20028;-68
2022/07/02 06:55:21;;;;;;;0.32;0.32;;;;;;;26.99;40.40;99585.72;5109013;28;20043;-69
2022/07/02 06:57:49;;;;;;;0.20;0.20;;;;;;;26.96;40.45;99577.34;5095552;28;20043;-70
2022/07/02 07:00:15;;;;;;;0.40;0.35;;;;;;;26.97;40.43;99574.13;5099479;28;20051;-70
2022/07/02 07:02:41;;;;;;;0.32;0.30;;;;;;;26.99;40.40;99573.69;5097846;28;20075;-70
2022/07/02 07:05:07;;;;;;;0.35;0.30;;;;;;;27.00;40.40;99572.47;5099020;28;20052;-70
2022/07/02 07:07:34;;;;;;;0.50;0.38;;;;;;;26.99;40.43;99570.88;5096352;28;20123;-70
2022/07/02 07:10:00;;;;;;;0.10;0.10;;;;;;;27.04;40.44;99573.25;5108798;28;20066;-70
2022/07/02 07:12:25;;;;;;;0.55;0.30;;;;;;;27.03;40.24;99572.47;5110977;28;20904;-70
2022/07/02 07:14:51;;;;;;;0.20;0.20;;;;;;;27.03;40.41;99571.69;5111135;28;20043;-70
2022/07/02 07:17:16;;;;;;;0.50;0.40;;;;;;;27.01;40.60;99574.09;5109222;28;20415;-70
2022/07/02 07:19:42;;;;;;;0.47;0.30;;;;;;;27.01;40.54;99571.31;5104708;28;20051;-70
2022/07/02 07:22:09;;;;;;;0.30;0.30;;;;;;;27.02;40.45;99576.50;5110468;28;20495;-70
2022/07/02 07:24:34;;;;;;;0.25;0.25;;;;;;;27.05;40.60;99575.69;5111191;28;20050;-70
2022/07/02 07:26:59;;;;;;;0.28;0.28;;;;;;;27.00;40.32;99575.28;5106020;28;20040;-70
2022/07/02 07:29:25;;;;;;;0.30;0.30;;;;;;;27.03;40.38;99571.69;5092332;28;20055;-70
2022/07/02 07:31:50;;;;;;;0.40;0.30;;;;;;;26.99;40.32;99574.50;5094553;28;20052;-70
2022/07/02 07:34:16;;;;;;;0.45;0.38;;;;;;;26.95;40.23;99559.72;5099889;28;20040;-70
2022/07/02 07:36:41;;;;;;;0.22;0.22;;;;;;;26.96;40.29;99563.31;5094837;28;20084;-70
2022/07/02 07:39:07;;;;;;;0.52;0.30;;;;;;;26.97;40.27;99556.47;5090338;28;20056;-70
2022/07/02 07:41:33;;;;;;;0.30;0.30;;;;;;;27.00;40.31;99553.63;5100743;28;20051;-70
2022/07/02 07:44:00;;;;;;;0.30;0.30;;;;;;;27.00;40.23;99555.63;5091184;28;20040;-70
2022/07/02 07:46:25;;;;;;;0.28;0.28;;;;;;;27.05;40.22;99544.00;5095462;28;20048;-70
2022/07/02 07:48:51;;;;;;;0.60;0.40;;;;;;;27.08;40.16;99546.00;5100384;28;20391;-70
2022/07/02 07:51:17;;;;;;;0.40;0.30;;;;;;;27.09;40.23;99544.78;5096045;28;20411;-70
2022/07/02 07:53:43;;;;;;;0.40;0.30;;;;;;;27.11;40.08;99550.78;5110474;28;20100;-70
2022/07/02 07:56:09;;;;;;;0.15;0.15;;;;;;;27.10;40.05;99546.38;5107364;28;20051;-70
2022/07/02 07:58:35;;;;;;;0.50;0.25;;;;;;;27.11;40.10;99539.53;5104619;28;20040;-70
2022/07/02 08:01:01;;;;;;;0.20;0.20;;;;;;;27.09;39.97;99544.78;5102357;28;20051;-70
2022/07/02 08:03:26;;;;;;;0.55;0.38;;;;;;;27.12;40.08;99541.94;5110384;28;20063;-70
2022/07/02 08:05:54;;;;;;;0.30;0.30;;;;;;;27.13;39.84;99545.53;5109892;28;20046;-70
2022/07/02 08:08:20;;;;;;;0.20;0.20;;;;;;;27.11;39.88;99545.16;5110002;28;20051;-70
2022/07/02 08:10:45;;;;;;;0.30;0.30;;;;;;;27.11;40.01;99548.75;5109447;28;20517;-70
2022/07/02 08:13:11;;;;;;;0.20;0.20;;;;;;;27.11;39.90;99542.34;5095204;28;20139;-70
2022/07/02 08:15:36;;;;;;;0.47;0.38;;;;;;;27.08;39.97;99537.56;5101347;28;20047;-70
2022/07/02 08:18:02;;;;;;;0.17;0.17;;;;;;;27.05;40.05;99535.56;5102955;28;20054;-70
2022/07/02 08:20:27;;;;;;;0.40;0.20;;;;;;;27.04;40.15;99542.38;5089404;28;20122;-70
2022/07/02 08:22:53;;;;;;;0.30;0.30;;;;;;;27.09;40.05;99536.34;5092135;28;20447;-70
2022/07/02 08:25:18;;;;;;;0.30;0.30;;;;;;;27.11;40.16;99533.94;5104142;28;20047;-70
2022/07/02 08:27:45;;;;;;;0.63;0.30;;;;;;;27.13;39.99;99537.09;5092332;28;20039;-70
2022/07/02 08:30:11;;;;;;;0.38;0.35;;;;;;;27.08;39.89;99523.53;5099949;28;20069;-70
2022/07/02 08:32:36;;;;;;;0.30;0.28;;;;;;;27.08;40.23;99518.72;5090300;28;20040;-70
2022/07/02 08:35:03;;;;;;;0.43;0.30;;;;;;;27.06;40.32;99514.72;5105129;28;20447;-70
2022/07/02 08:37:29;;;;;;;0.40;0.30;;;;;;;27.08;40.42;99510.28;5108905;28;20039;-68
2022/07/02 08:39:55;;;;;;;0.28;0.28;;;;;;;27.10;40.12;99516.28;5092290;28;20415;-69
2022/07/02 08:42:29;;;;;;;0.30;0.30;;;;;;;27.08;40.26;99509.50;5104132;28;20050;-68
2022/07/02 08:45:03;;;;;;;0.40;0.30;;;;;;;27.12;40.13;99499.81;5094534;28;20097;-68
2022/07/02 08:47:29;;;;;;;0.35;0.30;;;;;;;27.11;40.33;99500.22;5103638;28;20048;-68
2022/07/02 08:49:57;;;;;;;0.30;0.20;;;;;;;27.12;40.40;99496.22;5106192;28;20039;-69
2022/07/02 08:52:24;;;;;;;0.57;0.30;;;;;;;27.06;40.30;99487.44;5109556;28;20043;-68
2022/07/02 08:54:51;;;;;;;0.20;0.20;;;;;;;27.06;40.65;99486.63;5109161;28;20044;-68
2022/07/02 08:57:17;;;;;;;0.38;0.38;;;;;;;27.10;40.24;99482.59;5107483;28;20056;-68
2022/07/02 08:59:43;;;;;;;0.43;0.25;;;;;;;27.10;40.25;99476.19;5105064;28;20123;-68
2022/07/02 09:02:13;;;;;;;0.20;0.20;;;;;;;27.13;40.30;99481.75;5094828;28;20074;-68
2022/07/02 09:04:46;;;;;;;0.30;0.30;;;;;;;27.09;40.27;99475.38;5091209;28;20119;-68
2022/07/02 09:07:16;;;;;;;0.30;0.25;;;;;;;27.10;40.43;99473.38;5089466;28;20044;-68
2022/07/02 09:09:42;;;;;;;0.32;0.30;;;;;;;27.13;40.57;99469.72;5088356;28;20129;-68
2022/07/02 09:12:15;;;;;;;0.57;0.40;;;;;;;27.09;40.47;99475.38;5088943;28;20123;-68
2022/07/02 09:14:42;;;;;;;0.30;0.30;;;;;;;27.15;40.34;99475.72;5093413;28;20071;-68
2022/07/02 09:17:10;;;;;;;0.57;0.40;;;;;;;27.12;40.26;99465.31;5091218;28;20121;-68
2022/07/02 09:19:36;;;;;;;0.38;0.35;;;;;;;27.14;40.41;99460.06;5106264;28;20545;-69
2022/07/02 09:22:03;;;;;;;0.25;0.20;;;;;;;27.14;40.32;99462.88;5099592;28;20412;-68
2022/07/02 09:24:36;;;;;;;0.52;0.30;;;;;;;27.18;40.19;99458.03;5091582;28;20058;-68
2022/07/02 09:27:01;;;;;;;0.30;0.30;;;;;;;27.17;40.00;99464.88;5099220;28;20054;-68
2022/07/02 09:29:27;;;;;;;0.28;0.28;;;;;;;27.16;40.30;99457.66;5095850;28;20048;-68
2022/07/02 09:31:52;;;;;;;0.55;0.45;;;;;;;27.16;40.38;99457.66;5090832;28;20044;-68
2022/07/02 09:34:27;;;;;;;0.25;0.22;;;;;;;27.12;40.56;99456.91;5106823;28;20177;-68
2022/07/02 09:36:54;;;;;;;0.38;0.30;;;;;;;27.14;40.58;99454.47;5097866;28;20059;-68
2022/07/02 09:39:30;;;;;;;0.30;0.30;;;;;;;27.10;40.83;99453.72;5091471;28;20039;-68
2022/07/02 09:41:56;;;;;;;0.43;0.30;;;;;;;27.17;40.57;99442.41;5085794;28;20037;-68
2022/07/02 09:44:21;;;;;;;0.32;0.20;;;;;;;27.15;40.74;99442.03;5089138;28;20580;-68
2022/07/02 09:46:47;;;;;;;0.50;0.30;;;;;;;27.16;40.64;99446.44;5091657;28;20503;-68
2022/07/02 09:49:14;;;;;;;0.45;0.40;;;;;;;27.21;40.75;99440.34;5111440;28;20460;-68
2022/07/02 09:51:51;;;;;;;0.22;0.22;;;;;;;27.20;40.45;99433.13;5097134;28;20135;-70
2022/07/02 09:54:24;;;;;;;0.65;0.30;;;;;;;27.23;40.54;99437.94;5101737;28;20039;-68
2022/07/02 09:56:55;;;;;;;0.20;0.20;;;;;;;27.24;40.51;99433.91;5091553;28;20052;-68
2022/07/02 09:59:21;;;;;;;0.30;0.30;;;;;;;27.25;40.79;99432.69;5093549;28;20462;-68
2022/07/02 10:01:47;;;;;;;0.28;0.28;;;;;;;27.27;40.65;99432.25;5112188;28;20130;-68
2022/07/02 10:04:16;;;;;;;0.52;0.40;;;;;;;27.26;40.67;99434.28;5112344;28;20161;-68
2022/07/02 10:06:43;;;;;;;0.20;0.20;;;;;;;27.25;40.65;99438.31;5111901;28;20043;-70
2022/07/02 10:09:11;;;;;;;0.30;0.30;;;;;;;27.27;40.69;99435.88;5097798;28;20044;-70
2022/07/02 10:11:37;;;;;;;0.20;0.20;;;;;;;27.27;40.71;99435.88;5095652;28;20423;-70
2022/07/02 10:14:04;;;;;;;0.20;0.20;;;;;;;27.32;40.72;99440.25;5099439;28;20058;-70
2022/07/02 10:16:30;;;;;;;0.32;0.30;;;;;;;27.30;40.61;99437.06;5101196;28;20123;-70
2022/07/02 10:18:58;;;;;;;0.40;0.30;;;;;;;27.26;40.62;99434.28;5112069;28;20131;-70
2022/07/02 10:21:25;;;;;;;0.55;0.40;;;;;;;27.26;40.87;99434.28;5110689;28;20419;-70
2022/07/02 10:23:51;;;;;;;0.50;0.30;;;;;;;27.28;40.59;99433.84;5098947;28;20043;-68
2022/07/02 10:26:17;;;;;;;0.40;0.40;;;;;;;27.29;40.69;99433.47;5098075;28;20559;-68
2022/07/02 10:28:43;;;;;;;0.30;0.30;;;;;;;27.32;40.79;99426.19;5094245;28;20044;-68
2022/07/02 10:31:17;;;;;;;0.82;0.50;;;;;;;27.31;40.69;99421.78;5099855;28;20043;-68
2022/07/02 10:34:34;;;;;;;0.40;0.32;;;;;;;27.32;40.87;99426.19;5093077;28;20101;-68
2022/07/02 10:37:00;;;;;;;0.30;0.30;;;;;;;27.36;40.64;99418.50;5074819;28;20479;-69
2022/07/02 10:39:25;;;;;;;0.32;0.32;;;;;;;27.38;40.54;99419.69;5103215;28;20143;-68
2022/07/02 10:41:50;;;;;;;0.32;0.30;;;;;;;27.34;40.45;99418.94;5105455;28;20100;-69
2022/07/02 10:44:16;;;;;;;0.40;0.35;;;;;;;27.38;40.55;99410.47;5111611;28;20411;-68
2022/07/02 10:46:47;;;;;;;0.40;0.40;;;;;;;27.34;40.74;99410.50;5111387;28;20054;-68
2022/07/02 10:49:24;;;;;;;0.30;0.20;;;;;;;27.39;40.87;99417.69;5104719;28;20142;-68
2022/07/02 10:51:55;;;;;;;0.43;0.32;;;;;;;27.39;40.85;99412.84;5102205;28;20186;-68
2022/07/02 10:54:30;;;;;;;0.80;0.50;;;;;;;27.37;40.73;99408.88;5111202;28;20556;-69
2022/07/02 10:56:56;;;;;;;0.30;0.30;;;;;;;27.40;40.82;99405.22;5100038;28;20035;-68
2022/07/02 10:59:22;;;;;;;0.40;0.30;;;;;;;27.39;40.73;99403.63;5095107;28;20397;-68
2022/07/02 11:01:59;;;;;;;0.40;0.30;;;;;;;27.38;40.87;99402.84;5105193;28;20035;-69
2022/07/02 11:04:25;;;;;;;0.30;0.30;;;;;;;27.40;40.90;99391.97;5104103;28;20393;-68
2022/07/02 11:06:50;;;;;;;0.28;0.20;;;;;;;27.41;40.70;99395.56;5090792;28;20046;-68
2022/07/02 11:09:16;;;;;;;0.30;0.30;;;;;;;27.42;40.71;99386.72;5110252;28;20044;-68
2022/07/02 11:11:41;;;;;;;0.35;0.32;;;;;;;27.44;40.82;99389.13;5101616;28;20040;-69
2022/07/02 11:14:12;;;;;;;0.30;0.30;;;;;;;27.42;40.95;99383.13;5110728;28;20031;-69
2022/07/02 11:16:49;;;;;;;0.32;0.25;;;;;;;27.39;41.12;99387.56;5092089;28;20050;-69
2022/07/02 11:19:26;;;;;;;0.32;0.30;;;;;;;27.43;41.15;99382.72;5110733;28;20054;-68
2022/07/02 11:21:54;;;;;;;0.40;0.40;;;;;;;27.45;40.80;99384.31;5110892;28;20082;-68
2022/07/02 11:24:22;;;;;;;0.38;0.30;;;;;;;27.38;40.87;99383.19;5101230;28;20399;-68
2022/07/02 11:26:47;;;;;;;1.35;0.40;;;;;;;27.36;41.14;99379.19;5110595;28;20028;-69
2022/07/02 11:29:13;;;;;;;0.30;0.30;;;;;;;27.37;41.00;99384.41;5103731;28;20044;-68
2022/07/02 11:31:44;;;;;;;0.35;0.30;;;;;;;27.37;41.06;99375.97;5094911;28;20053;-69
2022/07/02 11:34:10;;;;;;;0.43;0.30;;;;;;;27.41;40.98;99385.13;5092523;28;20055;-69
2022/07/02 11:36:37;;;;;;;0.40;0.35;;;;;;;27.42;40.81;99374.69;5109837;28;20429;-70